sensor_id;sensor_type;location;lat;lon;timestamp;temperature;humidity
9414;DHT22;4746;35.664;139.738;2023-07-20T00:00:47;32.50;99.90
9414;DHT22;4746;35.664;139.738;2023-07-20T00:03:20;32.60;99.90
9414;DHT22;4746;35.664;139.738;2023-07-20T00:05:51;32.70;99.90
9414;DHT22;4746;35.664;139.738;2023-07-20T00:08:19;32.70;99.90
9414;DHT22;4746;35.664;139.738;2023-07-20T00:10:46;32.70;99.90
9414;DHT22;4746;35.664;139.738;2023-07-20T00:13:14;32.90;99.90
9414;DHT22;4746;35.664;139.738;2023-07-20T00:15:42;32.90;99.90
9414;DHT22;4746;35.664;139.738;2023-07-20T00:18:09;32.90;99.90
9414;DHT22;4746;35.664;139.738;2023-07-20T00:20:37;33.00;99.90
9414;DHT22;4746;35.664;139.738;2023-07-20T00:23:05;33.10;99.90
9414;DHT22;4746;35.664;139.738;2023-07-20T00:25:33;33.20;99.90
9414;DHT22;4746;35.664;139.738;2023-07-20T00:28:01;33.30;99.90
9414;DHT22;4746;35.664;139.738;2023-07-20T00:30:29;33.40;99.90
9414;DHT22;4746;35.664;139.738;2023-07-20T00:32:57;33.50;99.90
9414;DHT22;4746;35.664;139.738;2023-07-20T00:35:24;33.60;99.90
9414;DHT22;4746;35.664;139.738;2023-07-20T00:37:51;33.60;99.90
9414;DHT22;4746;35.664;139.738;2023-07-20T00:40:19;33.50;99.90
9414;DHT22;4746;35.664;139.738;2023-07-20T00:42:47;33.50;99.90
9414;DHT22;4746;35.664;139.738;2023-07-20T00:45:14;33.60;99.90
9414;DHT22;4746;35.664;139.738;2023-07-20T00:47:42;33.60;99.90
9414;DHT22;4746;35.664;139.738;2023-07-20T00:50:10;33.70;99.90
9414;DHT22;4746;35.664;139.738;2023-07-20T00:52:38;33.60;99.90
9414;DHT22;4746;35.664;139.738;2023-07-20T00:55:07;33.50;99.90
9414;DHT22;4746;35.664;139.738;2023-07-20T00:57:36;33.50;99.90
9414;DHT22;4746;35.664;139.738;2023-07-20T01:00:05;33.60;99.90
9414;DHT22;4746;35.664;139.738;2023-07-20T01:02:33;33.60;99.90
9414;DHT22;4746;35.664;139.738;2023-07-20T01:05:01;33.70;99.90
9414;DHT22;4746;35.664;139.738;2023-07-20T01:07:42;33.70;99.90
9414;DHT22;4746;35.664;139.738;2023-07-20T01:10:20;33.80;99.90
9414;DHT22;4746;35.664;139.738;2023-07-20T01:13:14;33.80;99.90
9414;DHT22;4746;35.664;139.738;2023-07-20T01:15:57;33.90;99.90
9414;DHT22;4746;35.664;139.738;2023-07-20T01:18:27;33.90;99.90
9414;DHT22;4746;35.664;139.738;2023-07-20T01:21:09;33.90;99.90
9414;DHT22;4746;35.664;139.738;2023-07-20T01:24:17;33.80;99.90
9414;DHT22;4746;35.664;139.738;2023-07-20T01:30:16;33.50;99.90
9414;DHT22;4746;35.664;139.738;2023-07-20T01:32:47;33.50;99.90
9414;DHT22;4746;35.664;139.738;2023-07-20T01:35:16;33.50;99.90
9414;DHT22;4746;35.664;139.738;2023-07-20T01:37:47;33.40;99.90
9414;DHT22;4746;35.664;139.738;2023-07-20T01:40:16;33.50;99.90
9414;DHT22;4746;35.664;139.738;2023-07-20T01:42:45;33.50;99.90
9414;DHT22;4746;35.664;139.738;2023-07-20T01:45:13;33.30;99.90
9414;DHT22;4746;35.664;139.738;2023-07-20T01:47:41;33.30;99.90
9414;DHT22;4746;35.664;139.738;2023-07-20T01:50:09;33.10;99.90
9414;DHT22;4746;35.664;139.738;2023-07-20T01:52:36;33.10;99.90
9414;DHT22;4746;35.664;139.738;2023-07-20T01:55:04;33.00;99.90
9414;DHT22;4746;35.664;139.738;2023-07-20T01:57:32;32.90;99.90
9414;DHT22;4746;35.664;139.738;2023-07-20T02:00:00;32.80;99.90
9414;DHT22;4746;35.664;139.738;2023-07-20T02:02:28;32.80;99.90
9414;DHT22;4746;35.664;139.738;2023-07-20T02:04:55;32.80;99.90
9414;DHT22;4746;35.664;139.738;2023-07-20T02:07:23;32.80;99.90
9414;DHT22;4746;35.664;139.738;2023-07-20T02:09:51;32.80;99.90
9414;DHT22;4746;35.664;139.738;2023-07-20T02:12:18;32.80;99.90
9414;DHT22;4746;35.664;139.738;2023-07-20T02:14:46;33.00;99.90
9414;DHT22;4746;35.664;139.738;2023-07-20T02:17:14;33.00;99.90
9414;DHT22;4746;35.664;139.738;2023-07-20T02:19:41;33.00;99.90
9414;DHT22;4746;35.664;139.738;2023-07-20T02:22:09;33.10;99.90
9414;DHT22;4746;35.664;139.738;2023-07-20T02:24:36;33.10;99.90
9414;DHT22;4746;35.664;139.738;2023-07-20T02:27:04;33.20;99.90
9414;DHT22;4746;35.664;139.738;2023-07-20T02:29:33;33.30;99.90
9414;DHT22;4746;35.664;139.738;2023-07-20T02:32:02;33.20;99.90
9414;DHT22;4746;35.664;139.738;2023-07-20T02:34:30;33.20;99.90
9414;DHT22;4746;35.664;139.738;2023-07-20T02:36:57;33.20;99.90
9414;DHT22;4746;35.664;139.738;2023-07-20T02:39:30;33.20;99.90
9414;DHT22;4746;35.664;139.738;2023-07-20T02:41:58;33.20;99.90
9414;DHT22;4746;35.664;139.738;2023-07-20T02:44:25;33.10;99.90
9414;DHT22;4746;35.664;139.738;2023-07-20T02:46:53;33.10;99.90
9414;DHT22;4746;35.664;139.738;2023-07-20T02:49:20;33.10;99.90
9414;DHT22;4746;35.664;139.738;2023-07-20T02:51:48;33.10;99.90
9414;DHT22;4746;35.664;139.738;2023-07-20T02:54:15;33.20;99.90
9414;DHT22;4746;35.664;139.738;2023-07-20T02:56:43;33.10;99.90
9414;DHT22;4746;35.664;139.738;2023-07-20T02:59:11;33.10;99.90
9414;DHT22;4746;35.664;139.738;2023-07-20T03:01:38;33.10;99.90
9414;DHT22;4746;35.664;139.738;2023-07-20T03:04:08;33.20;99.90
9414;DHT22;4746;35.664;139.738;2023-07-20T03:06:39;33.10;99.90
9414;DHT22;4746;35.664;139.738;2023-07-20T03:09:06;33.10;99.90
9414;DHT22;4746;35.664;139.738;2023-07-20T03:11:35;33.10;99.90
9414;DHT22;4746;35.664;139.738;2023-07-20T03:14:03;33.10;99.90
9414;DHT22;4746;35.664;139.738;2023-07-20T03:16:31;33.10;99.90
9414;DHT22;4746;35.664;139.738;2023-07-20T03:19:00;33.10;99.90
9414;DHT22;4746;35.664;139.738;2023-07-20T03:21:27;33.10;99.90
9414;DHT22;4746;35.664;139.738;2023-07-20T03:23:55;33.10;99.90
9414;DHT22;4746;35.664;139.738;2023-07-20T03:26:23;33.10;99.90
9414;DHT22;4746;35.664;139.738;2023-07-20T03:28:51;33.20;99.90
9414;DHT22;4746;35.664;139.738;2023-07-20T03:31:18;33.30;99.90
9414;DHT22;4746;35.664;139.738;2023-07-20T03:33:46;33.30;99.90
9414;DHT22;4746;35.664;139.738;2023-07-20T03:36:13;33.40;99.90
9414;DHT22;4746;35.664;139.738;2023-07-20T03:38:41;33.40;99.90
9414;DHT22;4746;35.664;139.738;2023-07-20T03:41:08;33.40;99.90
9414;DHT22;4746;35.664;139.738;2023-07-20T03:43:38;33.40;99.90
9414;DHT22;4746;35.664;139.738;2023-07-20T03:46:05;33.50;99.90
9414;DHT22;4746;35.664;139.738;2023-07-20T03:48:33;33.70;99.90
9414;DHT22;4746;35.664;139.738;2023-07-20T03:51:01;33.80;99.90
9414;DHT22;4746;35.664;139.738;2023-07-20T03:53:29;33.90;99.90
9414;DHT22;4746;35.664;139.738;2023-07-20T03:55:56;34.10;99.90
9414;DHT22;4746;35.664;139.738;2023-07-20T03:58:24;34.10;99.90
9414;DHT22;4746;35.664;139.738;2023-07-20T04:00:52;34.20;99.90
9414;DHT22;4746;35.664;139.738;2023-07-20T04:03:20;34.20;99.90
9414;DHT22;4746;35.664;139.738;2023-07-20T04:05:54;34.30;99.90
9414;DHT22;4746;35.664;139.738;2023-07-20T04:08:23;34.50;99.90
9414;DHT22;4746;35.664;139.738;2023-07-20T04:10:51;34.80;99.90
9414;DHT22;4746;35.664;139.738;2023-07-20T04:13:19;35.00;99.90
9414;DHT22;4746;35.664;139.738;2023-07-20T04:15:46;35.20;99.90
9414;DHT22;4746;35.664;139.738;2023-07-20T04:18:14;35.30;99.90
9414;DHT22;4746;35.664;139.738;2023-07-20T04:20:41;35.50;99.90
9414;DHT22;4746;35.664;139.738;2023-07-20T04:23:09;35.40;99.90
9414;DHT22;4746;35.664;139.738;2023-07-20T04:25:38;35.50;99.90
9414;DHT22;4746;35.664;139.738;2023-07-20T04:28:07;35.40;99.90
9414;DHT22;4746;35.664;139.738;2023-07-20T04:30:36;35.30;99.90
9414;DHT22;4746;35.664;139.738;2023-07-20T04:33:04;35.20;99.90
9414;DHT22;4746;35.664;139.738;2023-07-20T04:35:52;35.20;99.90
9414;DHT22;4746;35.664;139.738;2023-07-20T04:38:21;35.30;99.90
9414;DHT22;4746;35.664;139.738;2023-07-20T04:40:49;35.30;99.90
9414;DHT22;4746;35.664;139.738;2023-07-20T04:43:17;35.20;99.90
9414;DHT22;4746;35.664;139.738;2023-07-20T04:45:45;35.20;99.90
9414;DHT22;4746;35.664;139.738;2023-07-20T04:48:17;35.10;99.90
9414;DHT22;4746;35.664;139.738;2023-07-20T04:50:45;35.00;99.90
9414;DHT22;4746;35.664;139.738;2023-07-20T04:53:13;34.90;99.90
9414;DHT22;4746;35.664;139.738;2023-07-20T04:55:48;34.50;99.90
9414;DHT22;4746;35.664;139.738;2023-07-20T04:58:21;34.20;99.90
9414;DHT22;4746;35.664;139.738;2023-07-20T05:00:49;33.90;99.90
9414;DHT22;4746;35.664;139.738;2023-07-20T05:03:18;33.60;99.90
9414;DHT22;4746;35.664;139.738;2023-07-20T05:05:47;33.50;99.90
9414;DHT22;4746;35.664;139.738;2023-07-20T05:08:15;33.50;99.90
9414;DHT22;4746;35.664;139.738;2023-07-20T05:10:43;33.60;99.90
9414;DHT22;4746;35.664;139.738;2023-07-20T05:13:12;33.80;99.90
9414;DHT22;4746;35.664;139.738;2023-07-20T05:15:40;33.80;99.90
9414;DHT22;4746;35.664;139.738;2023-07-20T05:18:08;33.80;99.90
9414;DHT22;4746;35.664;139.738;2023-07-20T05:20:35;33.90;99.90
9414;DHT22;4746;35.664;139.738;2023-07-20T05:23:03;34.00;99.90
9414;DHT22;4746;35.664;139.738;2023-07-20T05:25:31;34.00;99.90
9414;DHT22;4746;35.664;139.738;2023-07-20T05:28:00;34.20;99.90
9414;DHT22;4746;35.664;139.738;2023-07-20T05:30:27;34.10;99.90
9414;DHT22;4746;35.664;139.738;2023-07-20T05:32:56;34.10;99.90
9414;DHT22;4746;35.664;139.738;2023-07-20T05:35:25;34.00;99.90
9414;DHT22;4746;35.664;139.738;2023-07-20T05:37:53;34.00;99.90
9414;DHT22;4746;35.664;139.738;2023-07-20T05:40:20;34.10;99.90
9414;DHT22;4746;35.664;139.738;2023-07-20T05:42:49;34.20;99.90
9414;DHT22;4746;35.664;139.738;2023-07-20T05:45:18;34.50;99.90
9414;DHT22;4746;35.664;139.738;2023-07-20T05:47:46;34.50;99.90
9414;DHT22;4746;35.664;139.738;2023-07-20T05:50:14;34.50;99.90
9414;DHT22;4746;35.664;139.738;2023-07-20T05:52:42;34.50;99.90
9414;DHT22;4746;35.664;139.738;2023-07-20T05:55:11;34.60;99.90
9414;DHT22;4746;35.664;139.738;2023-07-20T05:57:38;34.70;99.90
9414;DHT22;4746;35.664;139.738;2023-07-20T06:00:10;34.90;99.90
9414;DHT22;4746;35.664;139.738;2023-07-20T06:02:40;35.30;99.90
9414;DHT22;4746;35.664;139.738;2023-07-20T06:05:08;35.20;99.90
9414;DHT22;4746;35.664;139.738;2023-07-20T06:07:37;35.30;99.90
9414;DHT22;4746;35.664;139.738;2023-07-20T06:10:05;35.20;99.90
9414;DHT22;4746;35.664;139.738;2023-07-20T06:12:33;35.30;99.90
9414;DHT22;4746;35.664;139.738;2023-07-20T06:15:05;35.50;99.90
9414;DHT22;4746;35.664;139.738;2023-07-20T06:17:50;35.70;99.90
9414;DHT22;4746;35.664;139.738;2023-07-20T06:20:18;35.90;99.90
9414;DHT22;4746;35.664;139.738;2023-07-20T06:22:45;35.90;99.90
9414;DHT22;4746;35.664;139.738;2023-07-20T06:25:13;35.80;99.90
9414;DHT22;4746;35.664;139.738;2023-07-20T06:27:40;35.80;99.90
9414;DHT22;4746;35.664;139.738;2023-07-20T06:30:11;35.70;99.90
9414;DHT22;4746;35.664;139.738;2023-07-20T06:32:39;35.70;99.90
9414;DHT22;4746;35.664;139.738;2023-07-20T06:35:06;35.70;99.90
9414;DHT22;4746;35.664;139.738;2023-07-20T06:37:35;35.60;99.90
9414;DHT22;4746;35.664;139.738;2023-07-20T06:40:03;35.30;99.90
9414;DHT22;4746;35.664;139.738;2023-07-20T06:42:31;35.20;99.90
9414;DHT22;4746;35.664;139.738;2023-07-20T06:44:58;35.10;99.90
9414;DHT22;4746;35.664;139.738;2023-07-20T06:47:26;35.00;99.90
9414;DHT22;4746;35.664;139.738;2023-07-20T06:49:53;35.00;99.90
9414;DHT22;4746;35.664;139.738;2023-07-20T06:52:22;35.50;99.90
9414;DHT22;4746;35.664;139.738;2023-07-20T06:54:50;36.60;99.90
9414;DHT22;4746;35.664;139.738;2023-07-20T06:57:20;37.70;99.90
9414;DHT22;4746;35.664;139.738;2023-07-20T06:59:47;38.90;99.90
9414;DHT22;4746;35.664;139.738;2023-07-20T07:02:15;39.70;99.90
9414;DHT22;4746;35.664;139.738;2023-07-20T07:04:43;39.80;99.90
9414;DHT22;4746;35.664;139.738;2023-07-20T07:07:11;39.60;99.90
9414;DHT22;4746;35.664;139.738;2023-07-20T07:09:42;39.70;99.90
9414;DHT22;4746;35.664;139.738;2023-07-20T07:12:09;40.20;99.90
9414;DHT22;4746;35.664;139.738;2023-07-20T07:14:37;40.90;99.90
9414;DHT22;4746;35.664;139.738;2023-07-20T07:17:05;41.70;99.90
9414;DHT22;4746;35.664;139.738;2023-07-20T07:19:33;42.30;99.90
9414;DHT22;4746;35.664;139.738;2023-07-20T07:22:03;43.00;95.90
9414;DHT22;4746;35.664;139.738;2023-07-20T07:24:31;43.40;90.10
9414;DHT22;4746;35.664;139.738;2023-07-20T07:27:05;43.70;90.00
9414;DHT22;4746;35.664;139.738;2023-07-20T07:29:33;43.50;81.40
9414;DHT22;4746;35.664;139.738;2023-07-20T07:32:00;42.70;82.90
9414;DHT22;4746;35.664;139.738;2023-07-20T07:34:28;42.00;83.80
9414;DHT22;4746;35.664;139.738;2023-07-20T07:36:55;41.20;88.70
9414;DHT22;4746;35.664;139.738;2023-07-20T07:39:23;40.30;92.10
9414;DHT22;4746;35.664;139.738;2023-07-20T07:41:50;39.50;95.70
9414;DHT22;4746;35.664;139.738;2023-07-20T07:44:18;39.00;99.60
9414;DHT22;4746;35.664;139.738;2023-07-20T07:46:47;38.60;99.90
9414;DHT22;4746;35.664;139.738;2023-07-20T07:49:16;38.10;99.90
9414;DHT22;4746;35.664;139.738;2023-07-20T07:51:45;37.40;99.90
9414;DHT22;4746;35.664;139.738;2023-07-20T07:54:13;36.80;99.90
9414;DHT22;4746;35.664;139.738;2023-07-20T07:56:41;36.40;99.90
9414;DHT22;4746;35.664;139.738;2023-07-20T07:59:09;36.00;99.90
9414;DHT22;4746;35.664;139.738;2023-07-20T08:01:37;35.60;99.90
9414;DHT22;4746;35.664;139.738;2023-07-20T08:04:05;35.20;99.90
9414;DHT22;4746;35.664;139.738;2023-07-20T08:06:32;34.70;99.90
9414;DHT22;4746;35.664;139.738;2023-07-20T08:09:00;34.40;99.90
9414;DHT22;4746;35.664;139.738;2023-07-20T08:11:28;34.10;99.90
9414;DHT22;4746;35.664;139.738;2023-07-20T08:13:57;33.80;99.90
9414;DHT22;4746;35.664;139.738;2023-07-20T08:16:26;33.70;99.90
9414;DHT22;4746;35.664;139.738;2023-07-20T08:18:54;33.40;99.90
9414;DHT22;4746;35.664;139.738;2023-07-20T08:21:21;33.30;99.90
9414;DHT22;4746;35.664;139.738;2023-07-20T08:23:49;33.00;99.90
9414;DHT22;4746;35.664;139.738;2023-07-20T08:26:16;32.70;99.90
9414;DHT22;4746;35.664;139.738;2023-07-20T08:28:45;32.50;99.90
9414;DHT22;4746;35.664;139.738;2023-07-20T08:31:14;32.40;99.90
9414;DHT22;4746;35.664;139.738;2023-07-20T08:33:42;32.40;99.90
9414;DHT22;4746;35.664;139.738;2023-07-20T08:36:09;32.30;99.90
9414;DHT22;4746;35.664;139.738;2023-07-20T08:38:37;32.20;99.90
9414;DHT22;4746;35.664;139.738;2023-07-20T08:41:07;32.20;99.90
9414;DHT22;4746;35.664;139.738;2023-07-20T08:43:37;32.20;99.90
9414;DHT22;4746;35.664;139.738;2023-07-20T08:46:10;32.60;99.90
9414;DHT22;4746;35.664;139.738;2023-07-20T08:48:41;33.20;99.90
9414;DHT22;4746;35.664;139.738;2023-07-20T08:51:11;33.40;99.90
9414;DHT22;4746;35.664;139.738;2023-07-20T08:53:40;33.40;99.90
9414;DHT22;4746;35.664;139.738;2023-07-20T08:56:09;33.30;99.90
9414;DHT22;4746;35.664;139.738;2023-07-20T08:58:43;33.30;99.90
9414;DHT22;4746;35.664;139.738;2023-07-20T09:01:11;33.10;99.90
9414;DHT22;4746;35.664;139.738;2023-07-20T09:03:42;33.00;99.90
9414;DHT22;4746;35.664;139.738;2023-07-20T09:06:15;32.90;99.90
9414;DHT22;4746;35.664;139.738;2023-07-20T09:08:46;32.90;99.90
9414;DHT22;4746;35.664;139.738;2023-07-20T09:11:15;32.70;99.90
9414;DHT22;4746;35.664;139.738;2023-07-20T09:13:43;32.70;99.90
9414;DHT22;4746;35.664;139.738;2023-07-20T09:16:14;32.50;99.90
9414;DHT22;4746;35.664;139.738;2023-07-20T09:18:42;32.50;99.90
9414;DHT22;4746;35.664;139.738;2023-07-20T09:21:10;32.40;99.90
9414;DHT22;4746;35.664;139.738;2023-07-20T09:23:38;32.20;99.90
9414;DHT22;4746;35.664;139.738;2023-07-20T09:26:13;32.00;99.90
9414;DHT22;4746;35.664;139.738;2023-07-20T09:28:54;31.90;99.90
9414;DHT22;4746;35.664;139.738;2023-07-20T09:31:22;31.80;99.90
9414;DHT22;4746;35.664;139.738;2023-07-20T09:33:53;31.70;99.90
9414;DHT22;4746;35.664;139.738;2023-07-20T09:36:27;31.60;99.90
9414;DHT22;4746;35.664;139.738;2023-07-20T09:38:55;31.40;99.90
9414;DHT22;4746;35.664;139.738;2023-07-20T09:41:23;31.30;99.90
9414;DHT22;4746;35.664;139.738;2023-07-20T09:43:52;31.10;99.90
9414;DHT22;4746;35.664;139.738;2023-07-20T09:46:22;31.00;99.90
9414;DHT22;4746;35.664;139.738;2023-07-20T09:48:55;31.00;99.90
9414;DHT22;4746;35.664;139.738;2023-07-20T09:51:25;30.90;99.90
9414;DHT22;4746;35.664;139.738;2023-07-20T09:53:53;30.80;99.90
9414;DHT22;4746;35.664;139.738;2023-07-20T09:56:22;30.80;99.90
9414;DHT22;4746;35.664;139.738;2023-07-20T09:58:51;30.80;99.90
9414;DHT22;4746;35.664;139.738;2023-07-20T10:01:21;30.70;99.90
9414;DHT22;4746;35.664;139.738;2023-07-20T10:03:54;30.70;99.90
9414;DHT22;4746;35.664;139.738;2023-07-20T10:06:29;30.60;99.90
9414;DHT22;4746;35.664;139.738;2023-07-20T10:09:04;30.50;99.90
9414;DHT22;4746;35.664;139.738;2023-07-20T10:11:36;30.50;99.90
9414;DHT22;4746;35.664;139.738;2023-07-20T10:14:07;30.40;99.90
9414;DHT22;4746;35.664;139.738;2023-07-20T10:16:54;30.40;99.90
9414;DHT22;4746;35.664;139.738;2023-07-20T10:22:03;30.30;99.90
9414;DHT22;4746;35.664;139.738;2023-07-20T10:24:38;30.30;99.90
9414;DHT22;4746;35.664;139.738;2023-07-20T10:27:08;30.10;99.90
9414;DHT22;4746;35.664;139.738;2023-07-20T10:29:36;30.00;99.90
9414;DHT22;4746;35.664;139.738;2023-07-20T10:32:05;29.90;99.90
9414;DHT22;4746;35.664;139.738;2023-07-20T10:34:37;29.80;99.90
9414;DHT22;4746;35.664;139.738;2023-07-20T10:37:05;29.80;99.90
9414;DHT22;4746;35.664;139.738;2023-07-20T10:39:33;29.70;99.90
9414;DHT22;4746;35.664;139.738;2023-07-20T10:42:10;29.60;99.90
9414;DHT22;4746;35.664;139.738;2023-07-20T10:44:50;29.50;99.90
9414;DHT22;4746;35.664;139.738;2023-07-20T10:47:47;29.40;99.90
9414;DHT22;4746;35.664;139.738;2023-07-20T10:50:36;29.30;99.90
9414;DHT22;4746;35.664;139.738;2023-07-20T10:53:23;29.20;99.90
9414;DHT22;4746;35.664;139.738;2023-07-20T10:56:06;29.20;99.90
9414;DHT22;4746;35.664;139.738;2023-07-20T10:58:48;29.20;99.90
9414;DHT22;4746;35.664;139.738;2023-07-20T11:01:20;29.10;99.90
9414;DHT22;4746;35.664;139.738;2023-07-20T11:03:50;29.10;99.90
9414;DHT22;4746;35.664;139.738;2023-07-20T11:09:13;29.00;99.90
9414;DHT22;4746;35.664;139.738;2023-07-20T11:12:08;29.00;99.90
9414;DHT22;4746;35.664;139.738;2023-07-20T11:14:56;28.90;99.90
9414;DHT22;4746;35.664;139.738;2023-07-20T11:17:34;28.80;99.90
9414;DHT22;4746;35.664;139.738;2023-07-20T11:20:02;28.80;99.90
9414;DHT22;4746;35.664;139.738;2023-07-20T11:22:57;28.80;99.90
9414;DHT22;4746;35.664;139.738;2023-07-20T11:26:02;28.80;99.90
9414;DHT22;4746;35.664;139.738;2023-07-20T11:28:36;28.80;99.90
9414;DHT22;4746;35.664;139.738;2023-07-20T11:31:07;28.70;99.90
9414;DHT22;4746;35.664;139.738;2023-07-20T11:33:36;28.70;99.90
9414;DHT22;4746;35.664;139.738;2023-07-20T11:36:05;28.70;99.90
9414;DHT22;4746;35.664;139.738;2023-07-20T11:38:33;28.70;99.90
9414;DHT22;4746;35.664;139.738;2023-07-20T11:41:02;28.70;99.90
9414;DHT22;4746;35.664;139.738;2023-07-20T11:43:30;28.70;99.90
9414;DHT22;4746;35.664;139.738;2023-07-20T11:46:00;28.70;99.90
9414;DHT22;4746;35.664;139.738;2023-07-20T11:48:27;28.70;99.90
9414;DHT22;4746;35.664;139.738;2023-07-20T11:50:55;28.70;99.90
9414;DHT22;4746;35.664;139.738;2023-07-20T11:53:25;28.70;99.90
9414;DHT22;4746;35.664;139.738;2023-07-20T11:55:53;28.80;99.90
9414;DHT22;4746;35.664;139.738;2023-07-20T11:58:21;28.80;99.90
9414;DHT22;4746;35.664;139.738;2023-07-20T12:00:49;28.90;99.90
9414;DHT22;4746;35.664;139.738;2023-07-20T12:03:16;28.80;99.90
9414;DHT22;4746;35.664;139.738;2023-07-20T12:05:45;28.90;99.90
9414;DHT22;4746;35.664;139.738;2023-07-20T12:08:13;28.90;99.90
9414;DHT22;4746;35.664;139.738;2023-07-20T12:10:40;28.90;99.90
9414;DHT22;4746;35.664;139.738;2023-07-20T12:13:13;28.90;99.90
9414;DHT22;4746;35.664;139.738;2023-07-20T12:15:42;28.90;99.90
9414;DHT22;4746;35.664;139.738;2023-07-20T12:18:10;28.90;99.90
9414;DHT22;4746;35.664;139.738;2023-07-20T12:20:38;28.90;99.90
9414;DHT22;4746;35.664;139.738;2023-07-20T12:23:12;29.00;99.90
9414;DHT22;4746;35.664;139.738;2023-07-20T12:25:45;29.00;99.90
9414;DHT22;4746;35.664;139.738;2023-07-20T12:31:45;28.90;99.90
9414;DHT22;4746;35.664;139.738;2023-07-20T12:34:13;28.90;99.90
9414;DHT22;4746;35.664;139.738;2023-07-20T12:36:41;28.80;99.90
9414;DHT22;4746;35.664;139.738;2023-07-20T12:39:09;28.80;99.90
9414;DHT22;4746;35.664;139.738;2023-07-20T12:41:36;28.80;99.90
9414;DHT22;4746;35.664;139.738;2023-07-20T12:44:07;28.80;99.90
9414;DHT22;4746;35.664;139.738;2023-07-20T12:46:34;28.70;99.90
9414;DHT22;4746;35.664;139.738;2023-07-20T12:49:06;28.70;99.90
9414;DHT22;4746;35.664;139.738;2023-07-20T12:51:33;28.60;99.90
9414;DHT22;4746;35.664;139.738;2023-07-20T12:57:15;28.70;99.90
9414;DHT22;4746;35.664;139.738;2023-07-20T13:00:14;28.70;99.90
9414;DHT22;4746;35.664;139.738;2023-07-20T13:03:02;28.80;99.90
9414;DHT22;4746;35.664;139.738;2023-07-20T13:05:55;28.70;99.90
9414;DHT22;4746;35.664;139.738;2023-07-20T13:08:22;28.70;99.90
9414;DHT22;4746;35.664;139.738;2023-07-20T13:10:57;28.80;99.90
9414;DHT22;4746;35.664;139.738;2023-07-20T13:13:32;28.70;99.90
9414;DHT22;4746;35.664;139.738;2023-07-20T13:15:59;28.80;99.90
9414;DHT22;4746;35.664;139.738;2023-07-20T13:18:26;28.80;99.90
9414;DHT22;4746;35.664;139.738;2023-07-20T13:20:54;28.80;99.90
9414;DHT22;4746;35.664;139.738;2023-07-20T13:23:21;28.70;99.90
9414;DHT22;4746;35.664;139.738;2023-07-20T13:25:49;28.80;99.90
9414;DHT22;4746;35.664;139.738;2023-07-20T13:28:16;28.70;99.90
9414;DHT22;4746;35.664;139.738;2023-07-20T13:30:44;28.70;99.90
9414;DHT22;4746;35.664;139.738;2023-07-20T13:33:16;28.60;99.90
9414;DHT22;4746;35.664;139.738;2023-07-20T13:35:44;28.60;99.90
9414;DHT22;4746;35.664;139.738;2023-07-20T13:38:11;28.60;99.90
9414;DHT22;4746;35.664;139.738;2023-07-20T13:40:39;28.70;99.90
9414;DHT22;4746;35.664;139.738;2023-07-20T13:43:06;28.70;99.90
9414;DHT22;4746;35.664;139.738;2023-07-20T13:45:34;28.70;99.90
9414;DHT22;4746;35.664;139.738;2023-07-20T13:48:01;28.60;99.90
9414;DHT22;4746;35.664;139.738;2023-07-20T13:50:29;28.60;99.90
9414;DHT22;4746;35.664;139.738;2023-07-20T13:52:56;28.60;99.90
9414;DHT22;4746;35.664;139.738;2023-07-20T13:55:24;28.50;99.90
9414;DHT22;4746;35.664;139.738;2023-07-20T13:57:51;28.40;99.90
9414;DHT22;4746;35.664;139.738;2023-07-20T14:00:19;28.20;99.90
9414;DHT22;4746;35.664;139.738;2023-07-20T14:02:46;28.10;99.90
9414;DHT22;4746;35.664;139.738;2023-07-20T14:05:14;28.00;99.90
9414;DHT22;4746;35.664;139.738;2023-07-20T14:07:42;27.90;99.90
9414;DHT22;4746;35.664;139.738;2023-07-20T14:10:10;27.90;99.90
9414;DHT22;4746;35.664;139.738;2023-07-20T14:12:37;27.80;99.90
9414;DHT22;4746;35.664;139.738;2023-07-20T14:15:06;27.80;99.90
9414;DHT22;4746;35.664;139.738;2023-07-20T14:17:38;27.90;99.90
9414;DHT22;4746;35.664;139.738;2023-07-20T14:20:05;27.90;99.90
9414;DHT22;4746;35.664;139.738;2023-07-20T14:22:34;27.90;99.90
9414;DHT22;4746;35.664;139.738;2023-07-20T14:25:02;27.90;99.90
9414;DHT22;4746;35.664;139.738;2023-07-20T14:27:29;27.90;99.90
9414;DHT22;4746;35.664;139.738;2023-07-20T14:29:57;27.90;99.90
9414;DHT22;4746;35.664;139.738;2023-07-20T14:32:25;27.90;99.90
9414;DHT22;4746;35.664;139.738;2023-07-20T14:34:55;27.90;99.90
9414;DHT22;4746;35.664;139.738;2023-07-20T14:37:23;27.90;99.90
9414;DHT22;4746;35.664;139.738;2023-07-20T14:39:50;27.80;99.90
9414;DHT22;4746;35.664;139.738;2023-07-20T14:42:18;27.70;99.90
9414;DHT22;4746;35.664;139.738;2023-07-20T14:44:45;27.60;99.90
9414;DHT22;4746;35.664;139.738;2023-07-20T14:47:12;27.60;99.90
9414;DHT22;4746;35.664;139.738;2023-07-20T14:49:40;27.70;99.90
9414;DHT22;4746;35.664;139.738;2023-07-20T14:52:08;27.70;99.90
9414;DHT22;4746;35.664;139.738;2023-07-20T14:54:36;27.80;99.90
9414;DHT22;4746;35.664;139.738;2023-07-20T14:57:04;27.80;99.90
9414;DHT22;4746;35.664;139.738;2023-07-20T14:59:33;27.70;99.90
9414;DHT22;4746;35.664;139.738;2023-07-20T15:02:01;27.60;99.90
9414;DHT22;4746;35.664;139.738;2023-07-20T15:04:28;27.50;99.90
9414;DHT22;4746;35.664;139.738;2023-07-20T15:06:56;27.50;99.90
9414;DHT22;4746;35.664;139.738;2023-07-20T15:09:23;27.40;99.90
9414;DHT22;4746;35.664;139.738;2023-07-20T15:11:51;27.40;99.90
9414;DHT22;4746;35.664;139.738;2023-07-20T15:14:20;27.40;99.90
9414;DHT22;4746;35.664;139.738;2023-07-20T15:16:48;27.40;99.90
9414;DHT22;4746;35.664;139.738;2023-07-20T15:19:15;27.40;99.90
9414;DHT22;4746;35.664;139.738;2023-07-20T15:21:43;27.40;99.90
9414;DHT22;4746;35.664;139.738;2023-07-20T15:24:10;27.40;99.90
9414;DHT22;4746;35.664;139.738;2023-07-20T15:26:38;27.50;99.90
9414;DHT22;4746;35.664;139.738;2023-07-20T15:29:07;27.60;99.90
9414;DHT22;4746;35.664;139.738;2023-07-20T15:31:35;27.60;99.90
9414;DHT22;4746;35.664;139.738;2023-07-20T15:34:02;27.60;99.90
9414;DHT22;4746;35.664;139.738;2023-07-20T15:36:30;27.60;99.90
9414;DHT22;4746;35.664;139.738;2023-07-20T15:38:57;27.60;99.90
9414;DHT22;4746;35.664;139.738;2023-07-20T15:41:25;27.70;99.90
9414;DHT22;4746;35.664;139.738;2023-07-20T15:43:52;27.70;99.90
9414;DHT22;4746;35.664;139.738;2023-07-20T15:48:47;27.70;99.90
9414;DHT22;4746;35.664;139.738;2023-07-20T15:51:15;27.70;99.90
9414;DHT22;4746;35.664;139.738;2023-07-20T15:53:42;27.60;99.90
9414;DHT22;4746;35.664;139.738;2023-07-20T15:56:10;27.60;99.90
9414;DHT22;4746;35.664;139.738;2023-07-20T15:58:37;27.60;99.90
9414;DHT22;4746;35.664;139.738;2023-07-20T16:01:07;27.60;99.90
9414;DHT22;4746;35.664;139.738;2023-07-20T16:03:35;27.60;99.90